Time;durP1;ratioP1;P1;durP2;ratioP2;P2;SDS_P1;SDS_P2;PMS_P1;PMS_P2;Temp;Humidity;BMP_temperature;BMP_pressure;BME280_temperature;BME280_humidity;BME280_pressure;Samples;Min_cycle;Max_cycle;Signal;HPM_P1;HPM_P2
2022/04/01 00:00:26;;;;;;;35.58;9.38;;;;;;;11.85;100.00;99935.27;1746530;80;21010;-84
2022/04/01 00:02:52;;;;;;;37.88;9.18;;;;;;;11.83;100.00;99935.56;1749858;80;21184;-84
2022/04/01 00:05:19;;;;;;;31.42;8.98;;;;;;;11.80;100.00;99925.34;1748564;81;21157;-84
2022/04/01 00:07:45;;;;;;;38.20;8.53;;;;;;;11.80;100.00;99917.23;1753846;80;21831;-84
2022/04/01 00:10:12;;;;;;;38.98;9.43;;;;;;;11.80;100.00;99926.14;1753730;80;21523;-84
2022/04/01 00:12:44;;;;;;;38.23;9.63;;;;;;;11.78;100.00;99922.91;1747795;80;21026;-84
2022/04/01 00:15:13;;;;;;;53.67;9.80;;;;;;;11.79;100.00;99915.61;1665474;85;21089;-84
2022/04/01 00:17:41;;;;;;;39.50;9.90;;;;;;;11.78;100.00;99909.41;1674735;85;21558;-84
2022/04/01 00:20:12;;;;;;;37.38;9.13;;;;;;;11.78;100.00;99888.37;1637490;86;21239;-84
2022/04/01 00:22:39;;;;;;;35.08;9.00;;;;;;;11.78;100.00;99856.77;1549674;92;21263;-84
2022/04/01 00:25:06;;;;;;;41.23;10.18;;;;;;;11.78;100.00;99862.17;1506642;93;21627;-84
2022/04/01 00:27:33;;;;;;;44.53;9.85;;;;;;;11.77;100.00;99846.28;1506069;92;21063;-84
2022/04/01 00:29:59;;;;;;;34.43;8.83;;;;;;;11.77;100.00;99866.52;1502477;92;21091;-84
2022/04/01 00:32:25;;;;;;;39.53;9.90;;;;;;;11.75;100.00;99857.34;1532526;92;21141;-84
2022/04/01 00:34:52;;;;;;;39.95;9.35;;;;;;;11.73;100.00;99868.96;1534804;91;21125;-84
2022/04/01 00:37:18;;;;;;;44.03;10.23;;;;;;;11.70;100.00;99868.73;1534955;91;21092;-84
2022/04/01 00:39:45;;;;;;;35.95;8.75;;;;;;;11.72;100.00;99872.77;1544383;91;21109;-84
2022/04/01 00:42:12;;;;;;;43.28;9.53;;;;;;;11.72;100.00;99869.27;1543370;91;21118;-84
2022/04/01 00:44:40;;;;;;;43.48;9.63;;;;;;;11.71;100.00;99881.96;1550140;92;21074;-84
2022/04/01 00:47:13;;;;;;;40.55;9.58;;;;;;;11.70;100.00;99878.18;1537895;91;21776;-84
2022/04/01 00:49:42;;;;;;;49.50;10.58;;;;;;;11.71;100.00;99881.96;1543303;91;21104;-84
2022/04/01 00:52:17;;;;;;;36.60;9.10;;;;;;;11.70;100.00;99876.83;1543209;91;21145;-84
2022/04/01 00:54:45;;;;;;;35.98;8.75;;;;;;;11.69;100.00;99880.08;1542642;91;21092;-84
2022/04/01 00:57:18;;;;;;;43.30;10.58;;;;;;;11.68;100.00;99877.69;1547544;92;21139;-84
2022/04/01 00:59:45;;;;;;;38.90;9.13;;;;;;;11.68;100.00;99877.13;1539723;91;21114;-82
2022/04/01 01:02:12;;;;;;;38.02;8.83;;;;;;;11.67;100.00;99878.75;1540096;91;21577;-84
2022/04/01 01:04:38;;;;;;;36.33;10.10;;;;;;;11.69;100.00;99873.33;1541129;91;21196;-84
2022/04/01 01:07:06;;;;;;;38.88;8.68;;;;;;;11.69;100.00;99847.69;1541220;91;21808;-84
2022/04/01 01:09:32;;;;;;;40.40;8.65;;;;;;;11.70;100.00;99854.69;1550234;91;21317;-84
2022/04/01 01:11:59;;;;;;;37.88;9.40;;;;;;;11.72;100.00;99839.02;1553285;92;21074;-84
2022/04/01 01:14:31;;;;;;;41.80;9.48;;;;;;;11.73;100.00;99836.57;1538438;91;21129;-84
2022/04/01 01:16:59;;;;;;;38.40;10.20;;;;;;;11.73;100.00;99819.58;1542613;91;21093;-83
2022/04/01 01:19:27;;;;;;;35.00;8.68;;;;;;;11.75;100.00;99840.34;1588060;86;21084;-84
2022/04/01 01:21:55;;;;;;;39.20;9.43;;;;;;;11.74;100.00;99832.80;1635366;86;21797;-84
2022/04/01 01:24:35;;;;;;;43.63;8.60;;;;;;;11.76;100.00;99840.59;1698652;82;21090;-84
2022/04/01 01:27:03;;;;;;;37.25;8.73;;;;;;;11.76;100.00;99844.09;1698737;82;21080;-84
2022/04/01 01:29:31;;;;;;;38.67;8.25;;;;;;;11.76;100.00;99845.45;1733846;80;21068;-84
2022/04/01 01:32:01;;;;;;;26.05;8.23;;;;;;;11.78;100.00;99822.23;1748774;80;21550;-84
2022/04/01 01:34:29;;;;;;;35.83;8.55;;;;;;;11.79;100.00;99818.43;1753414;80;21138;-84
2022/04/01 01:36:56;;;;;;;30.97;8.83;;;;;;;11.78;100.00;99826.28;1746252;80;20996;-84
2022/04/01 01:39:22;;;;;;;37.30;9.00;;;;;;;11.77;100.00;99821.98;1738635;80;21117;-84
2022/04/01 01:41:53;;;;;;;39.67;8.38;;;;;;;11.75;100.00;99814.70;1747769;81;21248;-84
2022/04/01 01:44:21;;;;;;;31.37;8.55;;;;;;;11.74;100.00;99817.95;1740408;81;21082;-83
2022/04/01 01:46:47;;;;;;;27.67;7.75;;;;;;;11.73;100.00;99822.28;1742698;80;21838;-84
2022/04/01 01:49:14;;;;;;;29.50;7.70;;;;;;;11.69;100.00;99809.91;1747382;80;20978;-84
2022/04/01 01:57:15;;;;;;;32.90;8.25;;;;;;;11.68;100.00;99819.66;1737298;80;21062;-84
2022/04/01 01:59:41;;;;;;;40.05;8.78;;;;;;;11.66;100.00;99821.28;1694273;83;21225;-83
2022/04/01 02:02:08;;;;;;;39.63;8.75;;;;;;;11.66;100.00;99809.68;1693810;83;21109;-84
2022/04/01 02:04:35;;;;;;;38.40;7.80;;;;;;;11.64;100.00;99800.50;1678428;84;21089;-84
2022/04/01 02:07:04;;;;;;;39.98;7.87;;;;;;;11.63;100.00;99797.56;1687091;83;21085;-84
2022/04/01 02:09:30;;;;;;;39.03;8.63;;;;;;;11.63;100.00;99808.36;1685082;82;20992;-84
2022/04/01 02:11:57;;;;;;;29.23;7.28;;;;;;;11.62;100.00;99831.05;1697584;83;21338;-84
2022/04/01 02:14:23;;;;;;;35.33;7.58;;;;;;;11.60;100.00;99825.92;1693296;83;21230;-83
2022/04/01 02:16:50;;;;;;;33.78;8.10;;;;;;;11.63;100.00;99833.99;1683327;83;21105;-83
2022/04/01 02:19:21;;;;;;;39.38;7.83;;;;;;;11.67;100.00;99830.97;1674484;83;21178;-84
2022/04/01 02:21:46;;;;;;;39.30;7.90;;;;;;;11.69;100.00;99821.25;1685049;84;21062;-84
2022/04/01 02:24:13;;;;;;;35.92;7.65;;;;;;;11.71;100.00;99805.03;1691078;83;21176;-84
2022/04/01 02:26:39;;;;;;;34.78;7.40;;;;;;;11.73;100.00;99808.78;1704987;83;21145;-84
2022/04/01 02:29:08;;;;;;;38.42;8.15;;;;;;;11.74;100.00;99800.41;1711583;83;21072;-84
2022/04/01 02:31:34;;;;;;;35.13;7.22;;;;;;;11.76;100.00;99802.26;1646350;83;21637;-84
2022/04/01 02:34:00;;;;;;;31.85;7.22;;;;;;;11.77;100.00;99797.14;1696355;83;21077;-84
2022/04/01 02:36:27;;;;;;;33.83;7.60;;;;;;;11.80;100.00;99801.16;1702727;83;21058;-84
2022/04/01 02:38:53;;;;;;;31.05;7.08;;;;;;;11.80;100.00;99792.52;1685187;83;22434;-84
2022/04/01 02:41:21;;;;;;;35.58;7.95;;;;;;;11.81;100.00;99787.36;1654809;85;21078;-84
2022/04/01 02:43:47;;;;;;;33.40;7.33;;;;;;;11.85;100.00;99792.19;1691587;83;21091;-84
2022/04/01 02:46:14;;;;;;;30.25;7.10;;;;;;;11.89;100.00;99783.81;1665383;83;21095;-84
2022/04/01 02:48:41;;;;;;;37.60;8.58;;;;;;;11.91;100.00;99786.48;1689176;83;21286;-84
2022/04/01 02:51:07;;;;;;;37.63;6.72;;;;;;;11.93;100.00;99788.89;1684942;83;21089;-84
2022/04/01 02:53:34;;;;;;;33.35;8.38;;;;;;;11.93;100.00;99800.48;1698108;83;21177;-84
2022/04/01 02:56:00;;;;;;;41.92;7.03;;;;;;;11.94;100.00;99797.23;1715775;81;21005;-84
2022/04/01 02:58:26;;;;;;;34.65;7.47;;;;;;;11.97;100.00;99786.68;1752052;80;21069;-84
2022/04/01 03:00:52;;;;;;;24.60;7.50;;;;;;;11.99;100.00;99789.88;1751826;80;21163;-84
2022/04/01 03:03:20;;;;;;;36.70;7.53;;;;;;;12.03;100.00;99802.28;1752828;80;21023;-83
2022/04/01 03:05:46;;;;;;;33.30;7.12;;;;;;;12.07;100.00;99795.75;1750994;80;21022;-83
2022/04/01 03:08:12;;;;;;;31.45;7.42;;;;;;;12.10;100.00;99789.77;1751949;80;21026;-84
2022/04/01 03:10:42;;;;;;;41.18;8.00;;;;;;;12.14;100.00;99792.13;1755337;81;21567;-84
2022/04/01 03:13:08;;;;;;;28.30;7.15;;;;;;;12.15;100.00;99789.71;1752083;80;21769;-84
2022/04/01 03:18:05;;;;;;;29.30;6.85;;;;;;;12.19;100.00;99777.22;1657362;84;20974;-84
2022/04/01 03:20:33;;;;;;;38.83;7.20;;;;;;;12.21;100.00;99772.34;1652067;85;20995;-84
2022/04/01 03:22:59;;;;;;;31.35;7.85;;;;;;;12.23;100.00;99763.38;1652379;85;21564;-84
2022/04/01 03:25:28;;;;;;;27.05;6.58;;;;;;;12.24;100.00;99759.05;1665411;84;21932;-84
2022/04/01 03:27:54;;;;;;;45.88;7.58;;;;;;;12.24;100.00;99757.70;1669586;84;21149;-84
2022/04/01 03:30:20;;;;;;;37.85;6.62;;;;;;;12.26;100.00;99764.14;1653317;85;21101;-84
2022/04/01 03:32:46;;;;;;;34.35;6.83;;;;;;;12.27;100.00;99761.72;1657757;86;21165;-84
2022/04/01 03:35:19;;;;;;;29.12;6.80;;;;;;;12.31;100.00;99764.63;1656958;85;21102;-84
2022/04/01 03:37:46;;;;;;;32.80;7.30;;;;;;;12.30;100.00;99769.23;1659862;84;21062;-84
2022/04/01 03:40:14;;;;;;;31.23;7.03;;;;;;;12.33;100.00;99767.30;1665716;84;20982;-84
2022/04/01 03:42:46;;;;;;;33.33;7.92;;;;;;;12.37;100.00;99766.16;1659751;85;21640;-84
2022/04/01 03:45:14;;;;;;;30.20;7.55;;;;;;;12.39;100.00;99759.94;1665046;84;21128;-84
2022/04/01 03:47:54;;;;;;;27.62;6.45;;;;;;;12.41;100.00;99763.95;1664724;85;21148;-84
2022/04/01 03:50:26;;;;;;;38.35;7.15;;;;;;;12.42;100.00;99757.44;1710636;83;21791;-83
2022/04/01 03:52:58;;;;;;;36.65;7.00;;;;;;;12.44;100.00;99741.75;1711347;82;21450;-84
2022/04/01 03:55:28;;;;;;;37.10;7.95;;;;;;;12.46;100.00;99738.73;1684725;84;21154;-84
2022/04/01 03:57:56;;;;;;;35.00;6.80;;;;;;;12.48;100.00;99737.91;1684717;84;21144;-84
2022/04/01 04:00:22;;;;;;;35.20;6.90;;;;;;;12.52;100.00;99744.31;1686606;84;21108;-84
2022/04/01 04:02:48;;;;;;;31.27;7.15;;;;;;;12.54;100.00;99725.13;1679771;84;21271;-84
2022/04/01 04:05:19;;;;;;;41.85;7.80;;;;;;;12.57;100.00;99726.68;1676326;84;21070;-84
2022/04/01 04:07:46;;;;;;;39.33;7.12;;;;;;;12.62;100.00;99726.61;1680065;84;21642;-83
2022/04/01 04:10:13;;;;;;;42.40;8.20;;;;;;;12.68;100.00;99724.08;1685528;84;21211;-83
2022/04/01 04:12:43;;;;;;;36.98;8.65;;;;;;;12.73;100.00;99728.58;1685234;84;21093;-84
2022/04/01 04:15:10;;;;;;;31.27;7.05;;;;;;;12.77;100.00;99713.95;1661811;84;21178;-84
2022/04/01 04:17:47;;;;;;;39.27;7.80;;;;;;;12.81;100.00;99723.06;1662435;85;21042;-84
2022/04/01 04:20:24;;;;;;;38.60;7.85;;;;;;;12.85;100.00;99723.53;1669690;85;21142;-84
2022/04/01 04:23:10;;;;;;;29.87;8.10;;;;;;;12.89;100.00;99727.24;1576924;89;21134;-85
2022/04/01 04:25:38;;;;;;;37.00;7.97;;;;;;;12.95;99.16;99738.78;1584196;89;21187;-85
2022/04/01 04:28:12;;;;;;;39.30;7.30;;;;;;;13.02;96.83;99740.53;1581231;89;21808;-85
2022/04/01 04:30:45;;;;;;;48.05;7.80;;;;;;;13.06;96.70;99732.63;1548150;91;21094;-85
2022/04/01 04:33:12;;;;;;;42.48;7.03;;;;;;;13.11;95.62;99729.28;1564035;90;21038;-84
2022/04/01 04:35:40;;;;;;;35.78;7.03;;;;;;;13.18;94.86;99718.89;1568264;90;21115;-84
2022/04/01 04:38:10;;;;;;;32.38;6.67;;;;;;;13.27;93.48;99712.27;1561963;90;21101;-85
2022/04/01 04:40:36;;;;;;;43.68;7.80;;;;;;;13.33;92.43;99703.51;1575314;89;21066;-84
2022/04/01 04:43:05;;;;;;;42.55;6.72;;;;;;;13.37;91.47;99701.80;1557031;88;21063;-84
2022/04/01 04:45:31;;;;;;;46.77;7.17;;;;;;;13.42;91.33;99702.26;1565174;90;21078;-85
2022/04/01 04:47:58;;;;;;;41.92;7.45;;;;;;;13.44;93.20;99707.59;1565518;88;21704;-84
2022/04/01 04:50:25;;;;;;;56.48;9.53;;;;;;;13.47;93.47;99715.14;1561645;90;21255;-84
2022/04/01 04:52:54;;;;;;;42.00;7.85;;;;;;;13.52;93.45;99699.34;1540685;91;21159;-84
2022/04/01 04:55:22;;;;;;;34.67;7.67;;;;;;;13.54;90.04;99697.94;1496323;94;21597;-84
2022/04/01 04:57:52;;;;;;;40.12;7.35;;;;;;;13.56;89.84;99686.27;1503371;93;21139;-84
2022/04/01 05:00:20;;;;;;;37.13;7.42;;;;;;;13.59;88.01;99698.40;1490407;94;21592;-84
2022/04/01 05:03:37;;;;;;;40.80;7.60;;;;;;;13.64;87.37;99705.05;1518337;93;21164;-84
2022/04/01 05:06:06;;;;;;;42.75;7.12;;;;;;;13.72;85.98;99700.84;1504021;92;21220;-84
2022/04/01 05:08:50;;;;;;;40.83;7.22;;;;;;;13.81;83.26;99712.00;1552888;90;21141;-84
2022/04/01 05:11:46;;;;;;;33.95;8.20;;;;;;;13.88;82.26;99712.94;1562670;90;21288;-84
2022/04/01 05:14:30;;;;;;;27.80;7.33;;;;;;;14.01;79.79;99701.84;1547817;90;21102;-84
2022/04/01 05:17:05;;;;;;;40.30;7.37;;;;;;;14.15;79.94;99712.09;1534401;91;22131;-83
2022/04/01 05:19:32;;;;;;;46.23;9.20;;;;;;;14.34;76.48;99693.52;1550185;89;21205;-83
2022/04/01 05:22:10;;;;;;;29.65;6.50;;;;;;;14.48;73.08;99690.20;1581206;88;21115;-84
2022/04/01 05:24:43;;;;;;;33.48;6.35;;;;;;;14.58;71.46;99694.59;1576571;89;21108;-83
2022/04/01 05:27:28;;;;;;;40.43;7.03;;;;;;;14.67;68.48;99682.69;1574993;88;21073;-83
2022/04/01 05:30:16;;;;;;;34.80;7.00;;;;;;;14.77;67.28;99683.02;1575446;89;21104;-83
2022/04/01 05:32:59;;;;;;;36.45;7.00;;;;;;;14.84;66.93;99681.20;1619360;86;21073;-84
2022/04/01 05:35:37;;;;;;;35.65;6.78;;;;;;;14.91;65.64;99678.84;1618368;86;21122;-86
2022/04/01 05:38:05;;;;;;;45.17;7.40;;;;;;;14.95;64.03;99683.34;1612264;86;21128;-84
2022/04/01 05:40:32;;;;;;;43.17;7.35;;;;;;;14.98;63.30;99680.56;1565913;90;21068;-85
2022/04/01 05:43:02;;;;;;;38.63;7.80;;;;;;;15.02;62.68;99685.61;1579806;88;21086;-85
2022/04/01 05:45:29;;;;;;;32.08;6.17;;;;;;;15.06;62.48;99674.92;1574000;89;21203;-85
2022/04/01 05:47:58;;;;;;;45.75;7.40;;;;;;;15.16;60.41;99681.45;1570094;89;21177;-85
2022/04/01 05:50:28;;;;;;;45.23;6.60;;;;;;;15.30;60.94;99681.36;1608477;85;21109;-84
2022/04/01 05:52:55;;;;;;;37.03;7.08;;;;;;;15.43;59.60;99663.58;1670899;84;21111;-84
2022/04/01 05:55:28;;;;;;;40.33;6.45;;;;;;;15.55;59.26;99664.33;1664170;85;21079;-84
2022/04/01 05:57:55;;;;;;;37.95;6.30;;;;;;;15.62;58.21;99659.81;1660868;84;22165;-84
2022/04/01 06:00:22;;;;;;;40.45;7.30;;;;;;;15.66;58.16;99663.48;1665124;84;21174;-84
2022/04/01 06:03:23;;;;;;;29.72;5.80;;;;;;;15.73;57.44;99655.69;1664677;84;21611;-84
2022/04/01 06:06:09;;;;;;;42.75;7.30;;;;;;;15.82;56.63;99654.34;1606733;87;21706;-84
2022/04/01 06:08:48;;;;;;;43.33;7.12;;;;;;;15.90;56.10;99645.41;1603903;87;21079;-84
2022/04/01 06:11:25;;;;;;;36.45;6.83;;;;;;;15.93;55.51;99610.80;1544410;91;21208;-84
2022/04/01 06:14:18;;;;;;;32.38;7.10;;;;;;;16.31;54.59;99619.09;1521705;92;21009;-84
2022/04/01 06:17:09;;;;;;;30.70;6.00;;;;;;;16.60;53.68;99614.09;1572544;88;21049;-84
2022/04/01 06:19:43;;;;;;;48.68;6.87;;;;;;;16.60;53.68;99614.09;1511438;93;21108;-83
2022/04/01 06:22:14;;;;;;;32.38;5.55;;;;;;;17.02;52.07;99645.03;1495866;94;21250;-84
2022/04/01 06:25:10;;;;;;;30.82;6.12;;;;;;;17.31;52.94;99652.44;1481266;94;21128;-84
2022/04/01 06:27:54;;;;;;;30.75;6.87;;;;;;;17.72;52.48;99646.84;1486340;94;21077;-83
2022/04/01 06:30:22;;;;;;;35.30;6.37;;;;;;;18.30;50.57;99649.80;1484294;94;21183;-85
2022/04/01 06:32:54;;;;;;;34.05;6.92;;;;;;;19.36;49.20;99653.80;1489259;94;21121;-85
2022/04/01 06:35:34;;;;;;;36.68;7.30;;;;;;;20.67;48.03;99648.47;1504662;94;21168;-84
2022/04/01 06:38:09;;;;;;;28.07;6.45;;;;;;;21.61;44.21;99643.56;1477431;96;21170;-85
2022/04/01 06:41:00;;;;;;;41.13;6.62;;;;;;;22.19;42.02;99620.91;1409065;100;21235;-85
2022/04/01 06:43:28;;;;;;;37.53;7.12;;;;;;;22.65;41.10;99621.01;1344679;105;21198;-86
2022/04/01 06:45:56;;;;;;;36.90;5.92;;;;;;;23.08;39.28;99630.78;1344554;105;21215;-85
2022/04/01 06:48:22;;;;;;;33.55;6.03;;;;;;;23.40;39.19;99625.00;1383898;100;21149;-86
2022/04/01 06:50:50;;;;;;;27.70;5.45;;;;;;;23.47;38.15;99624.30;1417197;99;21774;-86
2022/04/01 06:53:18;;;;;;;33.45;7.37;;;;;;;23.24;37.57;99618.88;1398965;99;21062;-85
2022/04/01 06:55:47;;;;;;;34.58;6.75;;;;;;;22.97;37.47;99621.59;1398465;100;21738;-84
2022/04/01 06:58:14;;;;;;;38.42;6.62;;;;;;;22.86;38.66;99619.21;1398377;100;21324;-86
2022/04/01 07:00:42;;;;;;;33.63;6.33;;;;;;;23.05;38.16;99615.61;1400484;100;21875;-85
2022/04/01 07:03:11;;;;;;;31.85;6.62;;;;;;;23.18;38.41;99612.90;1390849;101;21291;-88
2022/04/01 07:05:40;;;;;;;42.50;6.58;;;;;;;23.67;37.32;99612.61;1391692;101;21781;-86
2022/04/01 07:08:08;;;;;;;39.35;5.78;;;;;;;24.29;36.82;99613.00;1395732;100;21169;-86
2022/04/01 07:10:35;;;;;;;37.15;6.92;;;;;;;25.08;36.06;99606.89;1408550;98;21218;-87
2022/04/01 07:13:02;;;;;;;43.63;6.92;;;;;;;25.73;36.07;99597.87;1431104;97;21170;-86
2022/04/01 07:15:29;;;;;;;41.95;7.10;;;;;;;25.87;34.90;99590.28;1451704;95;21013;-87
2022/04/01 07:17:55;;;;;;;45.52;6.95;;;;;;;25.92;35.26;99587.75;1509235;93;21168;-85
2022/04/01 07:20:25;;;;;;;42.48;7.20;;;;;;;26.47;33.40;99579.20;1504508;92;21254;-86
2022/04/01 07:22:52;;;;;;;41.77;7.00;;;;;;;26.64;33.46;99584.59;1499186;93;21097;-87
2022/04/01 07:25:19;;;;;;;40.88;5.95;;;;;;;26.69;33.18;99585.59;1496696;93;21068;-86
2022/04/01 07:27:46;;;;;;;37.65;6.53;;;;;;;26.28;32.16;99585.89;1494552;93;21618;-85
2022/04/01 07:30:13;;;;;;;39.00;5.83;;;;;;;26.31;32.53;99595.38;1522081;87;21103;-86
2022/04/01 07:32:40;;;;;;;31.42;6.12;;;;;;;26.58;32.55;99585.57;1605841;87;21067;-86
2022/04/01 07:35:13;;;;;;;36.48;6.75;;;;;;;26.67;32.77;99586.56;1584028;88;21462;-86
2022/04/01 07:37:42;;;;;;;42.03;6.65;;;;;;;26.89;32.72;99584.63;1642694;84;21132;-88
2022/04/01 07:40:18;;;;;;;33.08;6.40;;;;;;;27.40;32.31;99580.03;1637860;84;21227;-87
2022/04/01 07:42:45;;;;;;;36.25;6.37;;;;;;;27.72;32.08;99585.29;1652311;84;21042;-87
2022/04/01 07:45:12;;;;;;;24.20;6.17;;;;;;;28.28;31.67;99580.09;1655209;84;21116;-88
2022/04/01 07:47:44;;;;;;;29.65;6.97;;;;;;;29.18;30.33;99566.98;1649798;85;21066;-88
2022/04/01 07:50:09;;;;;;;39.18;7.17;;;;;;;29.34;30.00;99544.22;1648908;84;21145;-87
2022/04/01 07:52:40;;;;;;;28.00;6.53;;;;;;;29.72;28.43;99535.27;1656528;84;21199;-89
2022/04/01 07:55:05;;;;;;;46.53;7.35;;;;;;;30.01;28.38;99532.90;1660602;84;21032;-87
2022/04/01 07:57:32;;;;;;;31.75;6.75;;;;;;;29.92;27.96;99533.23;1666242;84;20978;-88
2022/04/01 08:00:00;;;;;;;36.60;7.37;;;;;;;30.38;27.22;99544.30;1663726;83;21111;-89
2022/04/01 08:02:29;;;;;;;48.17;7.45;;;;;;;30.44;26.62;99530.89;1657320;85;20956;-88
2022/04/01 08:04:56;;;;;;;42.80;6.58;;;;;;;30.55;27.53;99539.07;1662699;84;21515;-87
2022/04/01 08:07:22;;;;;;;37.25;6.92;;;;;;;31.08;26.25;99541.56;1661709;83;21197;-88
2022/04/01 08:09:53;;;;;;;48.45;6.80;;;;;;;31.36;26.53;99549.25;1653867;84;21128;-88
2022/04/01 08:12:20;;;;;;;48.70;7.40;;;;;;;31.32;26.22;99549.88;1656844;84;21559;-88
2022/04/01 09:03:00;;;;;;;38.40;7.60;;;;;;;28.19;28.43;99521.57;1750361;81;20993;-87
2022/04/01 09:05:28;;;;;;;46.55;7.17;;;;;;;27.77;29.21;99531.67;1749419;81;21854;-86
2022/04/01 09:08:04;;;;;;;50.33;13.05;;;;;;;27.99;29.90;99521.29;1747180;80;20999;-88
2022/04/01 09:10:34;;;;;;;53.87;8.25;;;;;;;28.66;29.64;99511.55;1678679;84;20974;-86
2022/04/01 09:35:06;;;;;;;44.45;7.42;;;;;;;31.40;25.85;99491.48;1665056;84;21630;-86
2022/04/01 09:37:45;;;;;;;45.12;7.67;;;;;;;31.04;26.12;99486.59;1648133;84;22535;-86
2022/04/01 09:40:50;;;;;;;43.45;6.67;;;;;;;31.03;26.14;99484.22;1568688;90;21727;-86
2022/04/01 09:43:24;;;;;;;51.33;7.60;;;;;;;31.30;25.63;99481.33;1567400;90;21105;-87
2022/04/01 09:45:51;;;;;;;41.00;7.17;;;;;;;31.17;25.58;99474.20;1568251;89;21662;-86
2022/04/01 09:48:21;;;;;;;44.03;6.87;;;;;;;31.21;25.92;99462.41;1570176;89;21161;-87
2022/04/01 09:50:58;;;;;;;32.73;6.03;;;;;;;31.52;25.71;99465.76;1568661;90;21268;-87
2022/04/01 09:53:25;;;;;;;46.05;8.08;;;;;;;31.28;25.85;99471.22;1551892;90;21523;-87
2022/04/01 09:55:53;;;;;;;43.38;5.70;;;;;;;31.13;25.64;99470.10;1601361;88;21591;-86
2022/04/01 09:58:22;;;;;;;57.43;6.67;;;;;;;30.61;25.79;99456.72;1606800;88;21138;-86
2022/04/01 10:00:52;;;;;;;40.00;6.55;;;;;;;30.45;26.13;99467.14;1608007;88;21055;-88
2022/04/01 10:03:19;;;;;;;49.20;6.85;;;;;;;30.17;26.14;99465.56;1607768;88;21317;-87
2022/04/01 10:05:46;;;;;;;42.98;7.33;;;;;;;29.88;26.09;99458.25;1609114;88;21057;-87
2022/04/01 10:08:17;;;;;;;51.88;6.28;;;;;;;29.49;27.08;99466.50;1623120;86;21544;-86
2022/04/01 10:10:44;;;;;;;48.25;7.17;;;;;;;29.56;27.02;99458.09;1615844;87;21097;-87
2022/04/01 10:13:29;;;;;;;42.93;6.97;;;;;;;29.43;26.85;99457.05;1607229;87;21114;-87
2022/04/01 10:16:01;;;;;;;55.17;6.90;;;;;;;28.91;27.37;99437.20;1577719;88;21349;-86
2022/04/01 10:18:29;;;;;;;43.30;6.97;;;;;;;28.51;27.75;99465.15;1627909;86;21093;-87
2022/04/01 10:21:00;;;;;;;48.50;8.78;;;;;;;28.33;28.14;99453.41;1617084;86;21716;-86
2022/04/01 10:23:26;;;;;;;48.70;6.83;;;;;;;28.34;28.15;99441.11;1623920;86;21181;-84
2022/04/01 10:26:04;;;;;;;43.00;6.55;;;;;;;28.24;28.45;99448.33;1621699;86;21051;-85
2022/04/01 10:28:31;;;;;;;41.35;6.08;;;;;;;28.16;28.32;99437.10;1628730;86;21121;-84
2022/04/01 10:31:01;;;;;;;41.92;7.15;;;;;;;27.80;28.19;99454.75;1590793;88;21067;-86
2022/04/01 10:33:38;;;;;;;37.05;6.50;;;;;;;27.67;28.95;99439.75;1593718;89;21109;-86
2022/04/01 10:36:31;;;;;;;54.95;6.75;;;;;;;27.80;28.86;99451.98;1591311;88;21725;-87
2022/04/01 10:39:05;;;;;;;42.00;6.28;;;;;;;27.74;28.78;99440.33;1595843;87;21143;-85
2022/04/01 10:41:33;;;;;;;36.48;6.65;;;;;;;27.67;28.95;99446.67;1615581;87;21216;-85
2022/04/01 10:44:01;;;;;;;43.38;7.00;;;;;;;27.57;29.01;99454.45;1627638;87;21086;-87
2022/04/01 10:46:28;;;;;;;50.55;6.85;;;;;;;27.52;29.13;99452.09;1613564;87;20967;-84
2022/04/01 10:52:18;;;;;;;40.95;6.37;;;;;;;27.21;29.20;99453.80;1607073;87;22430;-85
2022/04/01 10:54:46;;;;;;;41.88;6.58;;;;;;;27.23;29.61;99455.58;1572004;89;21668;-85
2022/04/01 10:57:46;;;;;;;43.80;6.78;;;;;;;27.25;29.91;99451.82;1571351;89;21128;-86
2022/04/01 11:00:17;;;;;;;47.10;6.60;;;;;;;27.35;29.84;99448.99;1571475;88;21049;-85
2022/04/01 11:02:48;;;;;;;45.73;7.08;;;;;;;27.39;29.82;99445.63;1545426;91;21627;-85
2022/04/01 11:05:33;;;;;;;44.73;6.30;;;;;;;27.56;30.00;99443.17;1573884;89;21074;-88
2022/04/01 11:08:21;;;;;;;39.53;7.03;;;;;;;27.51;29.57;99442.22;1556222;90;21962;-85
2022/04/01 11:11:12;;;;;;;48.60;6.92;;;;;;;27.43;29.66;99438.69;1487715;93;21756;-87
2022/04/01 11:13:40;;;;;;;50.75;6.60;;;;;;;27.37;29.66;99420.94;1522353;93;32759;-85
2022/04/01 11:16:18;;;;;;;42.03;6.67;;;;;;;27.23;29.59;99426.53;1527163;93;21053;-86
2022/04/01 11:19:19;;;;;;;37.25;6.58;;;;;;;27.44;29.99;99425.64;1523338;93;21156;-84
2022/04/01 11:21:50;;;;;;;43.83;6.37;;;;;;;27.69;29.26;99404.75;1530593;92;21218;-85
2022/04/01 11:24:30;;;;;;;53.55;6.90;;;;;;;27.71;29.31;99410.08;1538858;92;21123;-85
2022/04/01 11:27:03;;;;;;;43.00;7.15;;;;;;;27.67;29.49;99404.36;1540401;92;21609;-88
2022/04/01 11:29:30;;;;;;;49.13;8.23;;;;;;;27.49;28.92;99426.01;1541680;92;21163;-88
2022/04/01 11:32:08;;;;;;;55.33;9.18;;;;;;;27.38;29.17;99412.25;1577765;87;21110;-87
2022/04/01 11:34:55;;;;;;;43.70;7.35;;;;;;;27.26;29.42;99414.66;1602961;88;21190;-86
2022/04/01 11:37:22;;;;;;;47.65;8.63;;;;;;;27.14;29.35;99408.94;1600560;88;21805;-86
2022/04/01 11:39:49;;;;;;;53.63;9.38;;;;;;;27.06;29.11;99402.67;1615906;87;21105;-87
2022/04/01 11:42:16;;;;;;;48.90;7.95;;;;;;;27.05;29.46;99403.84;1618074;87;21101;-87
2022/04/01 11:44:56;;;;;;;49.00;8.15;;;;;;;27.09;29.62;99406.02;1597982;88;21030;-85
2022/04/01 11:47:32;;;;;;;60.73;8.93;;;;;;;27.16;28.96;99394.94;1603328;88;22315;-85
2022/04/01 11:50:10;;;;;;;53.48;11.70;;;;;;;26.92;29.24;99388.89;1613509;87;20978;-87
2022/04/01 11:52:39;;;;;;;56.45;8.48;;;;;;;26.66;29.65;99397.05;1577066;89;21537;-85
2022/04/01 11:55:16;;;;;;;53.42;7.85;;;;;;;26.75;29.60;99381.44;1526054;92;21571;-86
2022/04/01 11:57:46;;;;;;;38.20;7.12;;;;;;;26.70;29.75;99397.22;1542393;89;21202;-85
2022/04/01 12:00:17;;;;;;;51.63;7.55;;;;;;;26.83;29.55;99396.81;1586845;88;21150;-85
2022/04/01 12:02:47;;;;;;;69.12;11.65;;;;;;;26.72;29.66;99387.16;1568033;90;21240;-87
2022/04/01 12:05:14;;;;;;;52.15;8.75;;;;;;;26.75;29.87;99399.41;1571596;90;21140;-85
2022/04/01 12:10:29;;;;;;;41.92;7.17;;;;;;;26.76;29.51;99387.14;1524112;92;21122;-84
2022/04/01 12:13:03;;;;;;;51.83;7.17;;;;;;;26.86;29.73;99373.91;1518689;93;21653;-85
2022/04/01 12:15:35;;;;;;;67.87;9.08;;;;;;;26.93;29.54;99373.86;1510078;94;21514;-85
2022/04/01 12:18:09;;;;;;;53.23;7.28;;;;;;;26.98;29.26;99377.60;1504447;93;21180;-85
2022/04/01 12:20:41;;;;;;;60.90;8.38;;;;;;;26.88;29.50;99370.13;1443474;98;21153;-85
2022/04/01 12:23:08;;;;;;;55.07;7.43;;;;;;;26.90;29.67;99376.83;1449093;98;21189;-85
2022/04/01 12:25:38;;;;;;;49.50;7.15;;;;;;;26.88;29.19;99359.84;1435293;98;21804;-85
2022/04/01 12:28:08;;;;;;;41.28;6.40;;;;;;;26.64;29.49;99364.87;1421394;98;21188;-85
2022/04/01 12:30:48;;;;;;;56.10;7.30;;;;;;;26.50;29.53;99369.82;1451314;96;21065;-84
2022/04/01 12:33:25;;;;;;;51.33;7.62;;;;;;;26.30;29.58;99370.83;1397823;99;21278;-85
2022/04/01 12:36:09;;;;;;;49.95;7.65;;;;;;;26.19;30.00;99367.28;1379687;102;21155;-83
2022/04/01 12:38:39;;;;;;;64.03;7.78;;;;;;;26.12;29.97;99370.84;1387917;102;22034;-84
2022/04/01 12:41:18;;;;;;;45.12;7.78;;;;;;;26.14;30.34;99377.34;1381621;102;21251;-86
2022/04/01 12:43:49;;;;;;;54.35;7.12;;;;;;;26.23;29.66;99378.51;1392842;102;21228;-87
2022/04/01 12:46:25;;;;;;;59.48;7.65;;;;;;;26.06;29.99;99379.33;1388386;102;21201;-86
2022/04/01 12:48:54;;;;;;;50.23;8.48;;;;;;;26.05;29.87;99374.97;1380082;101;21121;-86
2022/04/01 12:51:31;;;;;;;53.55;8.90;;;;;;;25.83;29.70;99384.63;1381045;100;21125;-86
2022/04/01 12:54:08;;;;;;;60.03;7.22;;;;;;;25.63;30.05;99379.84;1387635;100;21628;-85
2022/04/01 12:56:40;;;;;;;56.88;8.15;;;;;;;25.60;30.33;99377.27;1361349;103;21779;-85
2022/04/01 12:59:16;;;;;;;63.95;7.78;;;;;;;25.64;30.10;99368.39;1397448;100;21164;-85
2022/04/01 13:01:48;;;;;;;61.98;8.83;;;;;;;25.70;29.95;99375.70;1408928;100;21135;-85
2022/04/01 13:04:20;;;;;;;63.20;7.87;;;;;;;25.70;29.80;99365.45;1383322;100;21320;-85